Time;durP1;ratioP1;P1;durP2;ratioP2;P2;SDS_P1;SDS_P2;PMS_P1;PMS_P2;Temp;Humidity;BMP_temperature;BMP_pressure;BME280_temperature;BME280_humidity;BME280_pressure;Samples;Min_cycle;Max_cycle;Signal;HPM_P1;HPM_P2
2022/04/27 00:00:21;;;;;;;;;;;21.10;39.40;;;;;;5147996;27;19972;-55
2022/04/27 00:02:47;;;;;;;;;;;21.20;39.20;;;;;;5142811;27;19943;-55
2022/04/27 00:05:13;;;;;;;;;;;21.10;39.50;;;;;;5148082;27;20367;-48
2022/04/27 00:07:39;;;;;;;;;;;21.30;39.30;;;;;;5142378;27;19927;-49
2022/04/27 00:10:05;;;;;;;;;;;21.00;39.70;;;;;;5142233;27;19977;-53
2022/04/27 00:12:32;;;;;;;;;;;21.20;39.50;;;;;;5143429;27;20306;-57
2022/04/27 00:14:57;;;;;;;;;;;21.00;39.70;;;;;;5141730;27;19933;-57
2022/04/27 00:17:23;;;;;;;;;;;21.30;39.10;;;;;;5142079;27;21922;-48
2022/04/27 00:19:49;;;;;;;;;;;21.00;39.50;;;;;;5147606;27;19927;-56
2022/04/27 00:22:15;;;;;;;;;;;21.20;39.30;;;;;;5142244;27;20370;-47
2022/04/27 00:24:41;;;;;;;;;;;21.00;39.60;;;;;;5147686;27;19930;-56
2022/04/27 00:27:06;;;;;;;;;;;21.20;39.30;;;;;;5142242;27;20006;-55
2022/04/27 00:29:32;;;;;;;;;;;21.20;39.30;;;;;;5139521;27;19927;-59
2022/04/27 00:31:58;;;;;;;;;;;21.20;39.50;;;;;;5145120;27;19927;-58
2022/04/27 00:34:24;;;;;;;;;;;21.20;39.30;;;;;;5141637;27;20405;-58
2022/04/27 00:36:49;;;;;;;;;;;21.10;39.70;;;;;;5142022;27;19934;-58
2022/04/27 00:39:17;;;;;;;;;;;21.30;39.20;;;;;;5126990;27;19923;-58
2022/04/27 00:41:59;;;;;;;;;;;21.00;39.80;;;;;;5142041;27;19923;-50
2022/04/27 00:44:26;;;;;;;;;;;21.20;39.40;;;;;;5140254;27;20492;-58
2022/04/27 00:46:51;;;;;;;;;;;20.90;39.90;;;;;;5147203;27;20000;-49
2022/04/27 00:49:17;;;;;;;;;;;21.20;39.40;;;;;;5119351;27;19931;-47
2022/04/27 00:51:43;;;;;;;;;;;21.00;39.80;;;;;;5146516;27;19927;-50
2022/04/27 00:54:09;;;;;;;;;;;21.20;39.50;;;;;;5123110;27;20386;-52
2022/04/27 00:56:35;;;;;;;;;;;21.10;39.70;;;;;;5141848;27;19927;-58
2022/04/27 00:59:00;;;;;;;;;;;21.30;39.50;;;;;;5128736;27;20018;-55
2022/04/27 01:01:26;;;;;;;;;;;21.10;39.40;;;;;;5141617;27;19930;-57
2022/04/27 01:03:53;;;;;;;;;;;21.20;39.30;;;;;;5141783;27;20004;-53
2022/04/27 01:06:21;;;;;;;;;;;21.20;39.20;;;;;;5144242;27;19923;-58
2022/04/27 01:08:47;;;;;;;;;;;21.00;39.80;;;;;;5139474;27;20052;-54
2022/04/27 01:11:12;;;;;;;;;;;21.30;39.30;;;;;;5145476;27;19997;-60
2022/04/27 01:13:38;;;;;;;;;;;20.90;40.00;;;;;;5142920;27;19963;-58
2022/04/27 01:16:05;;;;;;;;;;;21.30;39.50;;;;;;5120753;27;19934;-51
2022/04/27 01:18:30;;;;;;;;;;;21.10;39.70;;;;;;5127860;27;19975;-48
2022/04/27 01:20:56;;;;;;;;;;;21.20;39.50;;;;;;5141259;27;19923;-47
2022/04/27 01:23:22;;;;;;;;;;;21.10;39.50;;;;;;5141538;27;19930;-49
2022/04/27 01:25:49;;;;;;;;;;;21.30;39.10;;;;;;5142650;27;20374;-55
2022/04/27 01:28:18;;;;;;;;;;;21.10;39.40;;;;;;5140366;27;20235;-54
2022/04/27 01:30:44;;;;;;;;;;;21.20;39.30;;;;;;5141004;27;19934;-54
2022/04/27 01:33:10;;;;;;;;;;;21.10;39.70;;;;;;5146700;27;19923;-48
2022/04/27 01:35:36;;;;;;;;;;;21.20;39.50;;;;;;5141268;27;19923;-48
2022/04/27 01:38:03;;;;;;;;;;;21.10;39.60;;;;;;5127719;27;19979;-53
2022/04/27 01:40:31;;;;;;;;;;;21.30;39.30;;;;;;5141274;27;19974;-48
2022/04/27 01:42:58;;;;;;;;;;;21.10;39.50;;;;;;5138585;27;19930;-51
2022/04/27 01:45:24;;;;;;;;;;;21.20;39.30;;;;;;5144102;27;20113;-57
2022/04/27 01:47:51;;;;;;;;;;;21.10;39.40;;;;;;5140456;27;19955;-56
2022/04/27 01:50:17;;;;;;;;;;;21.20;39.40;;;;;;5140998;27;20179;-54
2022/04/27 01:55:27;;;;;;;;;;;21.20;39.50;;;;;;5141042;27;20010;-58
2022/04/27 01:57:54;;;;;;;;;;;21.30;39.20;;;;;;5140813;27;19937;-57
2022/04/27 02:00:21;;;;;;;;;;;21.20;39.60;;;;;;5146057;27;19930;-59
2022/04/27 02:02:47;;;;;;;;;;;21.20;39.40;;;;;;5136475;27;19923;-57
2022/04/27 02:05:13;;;;;;;;;;;21.10;39.80;;;;;;5145573;27;19934;-55
2022/04/27 02:07:39;;;;;;;;;;;21.10;39.70;;;;;;5140512;27;20294;-59
2022/04/27 02:10:06;;;;;;;;;;;21.20;39.70;;;;;;5140547;27;20064;-58
2022/04/27 02:12:32;;;;;;;;;;;21.30;39.60;;;;;;5146191;27;19923;-57
2022/04/27 02:14:58;;;;;;;;;;;21.10;39.90;;;;;;5140996;27;20289;-53
2022/04/27 02:17:24;;;;;;;;;;;21.10;39.90;;;;;;5140663;27;20270;-58
2022/04/27 02:19:50;;;;;;;;;;;21.10;40.00;;;;;;5127814;27;19929;-52
2022/04/27 02:22:16;;;;;;;;;;;21.20;39.70;;;;;;5142114;27;19923;-58
2022/04/27 02:24:42;;;;;;;;;;;21.00;40.40;;;;;;5149313;27;19923;-52
2022/04/27 02:27:07;;;;;;;;;;;21.20;39.90;;;;;;5144231;27;19938;-58
2022/04/27 02:29:33;;;;;;;;;;;21.10;40.20;;;;;;5144287;27;19933;-57
2022/04/27 02:31:59;;;;;;;;;;;21.20;39.90;;;;;;5149634;27;19956;-50
2022/04/27 02:34:25;;;;;;;;;;;21.10;40.10;;;;;;5143858;27;20420;-55
2022/04/27 02:36:50;;;;;;;;;;;21.20;39.90;;;;;;5143989;27;19934;-51
2022/04/27 02:39:16;;;;;;;;;;;21.20;40.00;;;;;;5145264;27;19923;-55
2022/04/27 02:41:42;;;;;;;;;;;21.30;39.80;;;;;;5142951;27;19971;-48
2022/04/27 02:44:08;;;;;;;;;;;21.10;40.10;;;;;;5147243;27;19931;-55
2022/04/27 02:46:33;;;;;;;;;;;21.10;40.10;;;;;;5145733;27;19923;-48
2022/04/27 02:51:51;;;;;;;;;;;21.20;40.00;;;;;;5149110;27;20013;-56
2022/04/27 02:54:17;;;;;;;;;;;21.30;39.80;;;;;;5145200;27;19959;-52
2022/04/27 02:56:43;;;;;;;;;;;21.20;39.90;;;;;;5140893;27;19927;-57
2022/04/27 02:59:09;;;;;;;;;;;21.20;39.90;;;;;;5147054;27;20163;-55
2022/04/27 03:01:35;;;;;;;;;;;21.10;40.00;;;;;;5143112;27;19981;-59
2022/04/27 03:04:01;;;;;;;;;;;21.20;40.10;;;;;;5143742;27;19927;-58
2022/04/27 03:06:26;;;;;;;;;;;21.20;39.90;;;;;;5149073;27;19923;-56
2022/04/27 03:08:52;;;;;;;;;;;21.10;40.20;;;;;;5143460;27;20298;-57
2022/04/27 03:11:18;;;;;;;;;;;21.30;39.80;;;;;;5145451;27;20396;-57
2022/04/27 03:13:44;;;;;;;;;;;20.90;40.40;;;;;;5147028;27;19927;-58
2022/04/27 03:16:10;;;;;;;;;;;21.20;39.90;;;;;;5139226;27;20000;-49
2022/04/27 03:18:35;;;;;;;;;;;21.00;40.20;;;;;;5147891;27;19938;-59
2022/04/27 03:21:01;;;;;;;;;;;21.20;39.80;;;;;;5143116;27;19923;-56
2022/04/27 03:23:28;;;;;;;;;;;21.10;40.10;;;;;;5143309;27;19923;-58
2022/04/27 03:25:54;;;;;;;;;;;21.30;39.70;;;;;;5130463;27;20454;-56
2022/04/27 03:28:20;;;;;;;;;;;21.00;40.30;;;;;;5143017;27;19923;-58
2022/04/27 03:30:47;;;;;;;;;;;21.20;39.80;;;;;;5142030;27;20432;-53
2022/04/27 03:33:13;;;;;;;;;;;20.90;40.20;;;;;;5145683;27;19923;-54
2022/04/27 03:35:39;;;;;;;;;;;21.10;40.00;;;;;;5140579;27;19971;-58
2022/04/27 03:38:07;;;;;;;;;;;21.00;40.30;;;;;;5148088;27;19930;-54
2022/04/27 03:40:33;;;;;;;;;;;21.20;39.90;;;;;;5140887;27;19995;-57
2022/04/27 03:42:58;;;;;;;;;;;21.10;40.10;;;;;;5124151;27;19931;-58
2022/04/27 03:45:24;;;;;;;;;;;21.30;39.80;;;;;;5148248;27;19928;-59
2022/04/27 03:47:50;;;;;;;;;;;21.20;40.00;;;;;;5142853;27;19976;-54
2022/04/27 03:50:16;;;;;;;;;;;21.20;39.80;;;;;;5142920;27;19934;-58
2022/04/27 03:52:42;;;;;;;;;;;21.20;40.20;;;;;;5143801;27;20385;-57
2022/04/27 03:55:08;;;;;;;;;;;21.10;40.10;;;;;;5141722;27;19945;-58
2022/04/27 03:57:34;;;;;;;;;;;21.10;40.40;;;;;;5129359;27;20493;-59
2022/04/27 03:59:59;;;;;;;;;;;21.10;40.10;;;;;;5142641;27;19943;-56
2022/04/27 04:02:25;;;;;;;;;;;21.00;40.50;;;;;;5142524;27;19930;-52
2022/04/27 04:04:51;;;;;;;;;;;21.20;40.10;;;;;;5148166;27;20396;-58
2022/04/27 04:07:17;;;;;;;;;;;21.10;40.40;;;;;;5142615;27;20005;-57
2022/04/27 04:09:42;;;;;;;;;;;21.30;40.00;;;;;;5140798;27;20433;-56
2022/04/27 04:12:08;;;;;;;;;;;21.10;40.20;;;;;;5145293;27;19935;-58
2022/04/27 04:14:36;;;;;;;;;;;21.20;40.00;;;;;;5141878;27;19969;-57
2022/04/27 04:17:02;;;;;;;;;;;21.00;40.50;;;;;;5146122;27;20034;-53
2022/04/27 04:19:28;;;;;;;;;;;21.20;40.00;;;;;;5144456;27;19927;-51
2022/04/27 04:21:54;;;;;;;;;;;21.10;40.30;;;;;;5142381;27;20463;-56
2022/04/27 04:24:20;;;;;;;;;;;21.30;40.00;;;;;;5147584;27;19926;-58
2022/04/27 04:29:31;;;;;;;;;;;21.20;40.20;;;;;;5138105;27;19923;-58
2022/04/27 04:31:57;;;;;;;;;;;21.10;40.50;;;;;;5146508;27;19923;-59
2022/04/27 04:34:23;;;;;;;;;;;21.20;40.30;;;;;;5141955;27;19930;-57
2022/04/27 04:36:49;;;;;;;;;;;21.00;40.80;;;;;;5141878;27;20019;-48
2022/04/27 04:39:14;;;;;;;;;;;21.20;40.40;;;;;;5147496;27;19923;-53
2022/04/27 04:41:40;;;;;;;;;;;21.20;40.50;;;;;;5141750;27;20335;-53
2022/04/27 04:44:06;;;;;;;;;;;21.10;40.60;;;;;;5146457;27;19923;-53
2022/04/27 04:46:32;;;;;;;;;;;21.10;40.40;;;;;;5140763;27;20193;-51
2022/04/27 04:48:57;;;;;;;;;;;21.20;40.10;;;;;;5139430;27;19927;-58
2022/04/27 04:51:23;;;;;;;;;;;21.10;40.60;;;;;;5146833;27;20136;-54
2022/04/27 04:53:49;;;;;;;;;;;21.20;40.10;;;;;;5141722;27;20052;-58
2022/04/27 04:56:15;;;;;;;;;;;21.00;40.60;;;;;;5141843;27;20286;-55
2022/04/27 04:58:40;;;;;;;;;;;21.30;40.20;;;;;;5147403;27;19930;-58
2022/04/27 05:01:06;;;;;;;;;;;21.10;40.60;;;;;;5122898;27;20112;-55
2022/04/27 05:03:36;;;;;;;;;;;21.30;40.20;;;;;;5143937;27;19958;-56
2022/04/27 05:06:02;;;;;;;;;;;21.00;40.90;;;;;;5142462;27;20391;-52
2022/04/27 05:08:28;;;;;;;;;;;21.20;40.40;;;;;;5140500;27;19923;-57
2022/04/27 05:10:54;;;;;;;;;;;21.10;40.70;;;;;;5146767;27;19944;-56
2022/04/27 05:13:19;;;;;;;;;;;21.30;40.30;;;;;;5141448;27;19946;-55
2022/04/27 05:15:45;;;;;;;;;;;21.10;40.70;;;;;;5141534;27;20551;-56
2022/04/27 05:18:11;;;;;;;;;;;21.30;40.50;;;;;;5146831;27;20310;-58
2022/04/27 05:20:38;;;;;;;;;;;21.00;41.00;;;;;;5141431;27;19927;-58
2022/04/27 05:23:04;;;;;;;;;;;21.30;40.40;;;;;;5139508;27;20282;-58
2022/04/27 05:25:30;;;;;;;;;;;20.90;41.10;;;;;;5125758;27;20350;-52
2022/04/27 05:27:56;;;;;;;;;;;21.30;40.40;;;;;;5140738;27;19927;-56
2022/04/27 05:33:06;;;;;;;;;;;21.20;40.60;;;;;;5145503;27;19923;-58
2022/04/27 05:35:38;;;;;;;;;;;21.20;40.70;;;;;;5141313;27;19966;-55
2022/04/27 05:38:04;;;;;;;;;;;21.30;40.50;;;;;;5146841;27;19927;-56
2022/04/27 05:40:30;;;;;;;;;;;21.10;40.80;;;;;;5141230;27;19923;-52
2022/04/27 05:42:57;;;;;;;;;;;21.30;40.60;;;;;;5136899;27;19963;-57
2022/04/27 05:45:24;;;;;;;;;;;21.10;40.80;;;;;;5145577;27;20345;-51
2022/04/27 05:47:49;;;;;;;;;;;21.20;40.60;;;;;;5141035;27;20017;-56
2022/04/27 05:50:15;;;;;;;;;;;21.00;41.00;;;;;;5141344;27;20008;-58
2022/04/27 05:52:48;;;;;;;;;;;21.20;40.60;;;;;;5146582;27;19998;-58
2022/04/27 05:55:13;;;;;;;;;;;21.00;41.10;;;;;;5144806;27;19923;-51
2022/04/27 05:57:42;;;;;;;;;;;21.30;40.40;;;;;;5148895;27;19923;-55
2022/04/27 06:00:09;;;;;;;;;;;21.00;41.00;;;;;;5144914;27;19927;-56
2022/04/27 06:02:34;;;;;;;;;;;21.30;40.70;;;;;;5142362;27;19923;-51
2022/04/27 06:05:00;;;;;;;;;;;21.00;41.00;;;;;;5149443;27;19923;-56
2022/04/27 06:07:26;;;;;;;;;;;21.30;40.40;;;;;;5144262;27;20023;-55
2022/04/27 06:09:52;;;;;;;;;;;21.00;40.80;;;;;;5144293;27;19927;-49
2022/04/27 06:12:18;;;;;;;;;;;21.20;40.50;;;;;;5149677;27;19946;-53
2022/04/27 06:14:44;;;;;;;;;;;21.00;40.90;;;;;;5144314;27;20355;-54
2022/04/27 06:17:09;;;;;;;;;;;21.30;40.40;;;;;;5144907;27;19947;-57
2022/04/27 06:19:35;;;;;;;;;;;21.00;40.60;;;;;;5145591;27;20283;-56
2022/04/27 06:22:01;;;;;;;;;;;21.30;40.20;;;;;;5143064;27;20100;-49
2022/04/27 06:24:28;;;;;;;;;;;21.10;40.60;;;;;;5149258;27;19972;-48
2022/04/27 06:26:54;;;;;;;;;;;21.20;40.40;;;;;;5144087;27;19927;-53
2022/04/27 06:29:20;;;;;;;;;;;21.00;40.90;;;;;;5144345;27;19923;-58
2022/04/27 06:31:46;;;;;;;;;;;21.30;40.40;;;;;;5149790;27;19927;-56
2022/04/27 06:34:12;;;;;;;;;;;21.20;40.60;;;;;;5143947;27;20474;-55
2022/04/27 06:36:39;;;;;;;;;;;21.20;40.60;;;;;;5141951;27;20333;-51
2022/04/27 06:39:07;;;;;;;;;;;21.10;40.90;;;;;;5146628;27;20021;-53
2022/04/27 06:41:33;;;;;;;;;;;21.20;40.60;;;;;;5143289;27;20359;-58
2022/04/27 06:43:58;;;;;;;;;;;21.10;40.80;;;;;;5149226;27;19927;-58
2022/04/27 06:46:24;;;;;;;;;;;21.30;40.60;;;;;;5143793;27;20018;-49
2022/04/27 06:48:50;;;;;;;;;;;21.00;41.10;;;;;;5144099;27;19930;-51
2022/04/27 06:51:18;;;;;;;;;;;21.20;40.80;;;;;;5149383;27;20290;-58
2022/04/27 06:53:44;;;;;;;;;;;21.10;41.10;;;;;;5143759;27;19933;-56
2022/04/27 06:56:10;;;;;;;;;;;21.20;40.70;;;;;;5139896;27;20283;-56
2022/04/27 06:58:36;;;;;;;;;;;21.10;41.10;;;;;;5147853;27;19923;-57
2022/04/27 07:01:02;;;;;;;;;;;21.30;40.60;;;;;;5143480;27;20386;-59
2022/04/27 07:03:30;;;;;;;;;;;20.90;41.30;;;;;;5147515;27;19923;-56
2022/04/27 07:05:56;;;;;;;;;;;21.20;40.90;;;;;;5146139;27;19930;-56
2022/04/27 07:08:22;;;;;;;;;;;21.10;41.20;;;;;;5125274;27;19922;-57
2022/04/27 07:10:49;;;;;;;;;;;21.20;41.00;;;;;;5149146;27;19938;-56
2022/04/27 07:13:14;;;;;;;;;;;21.10;41.30;;;;;;5141622;27;19923;-57
2022/04/27 07:15:40;;;;;;;;;;;21.30;40.80;;;;;;5140501;27;19931;-50
2022/04/27 07:18:06;;;;;;;;;;;21.20;40.80;;;;;;5148021;27;19983;-49
2022/04/27 07:20:32;;;;;;;;;;;21.20;40.70;;;;;;5143086;27;20013;-52
2022/04/27 07:22:57;;;;;;;;;;;21.00;41.10;;;;;;5143989;27;19923;-53
2022/04/27 07:25:23;;;;;;;;;;;21.20;40.70;;;;;;5148483;27;19923;-57
2022/04/27 07:27:49;;;;;;;;;;;21.00;40.90;;;;;;5143175;27;19931;-54
2022/04/27 07:30:15;;;;;;;;;;;21.30;40.50;;;;;;5128909;27;19928;-47
2022/04/27 07:32:41;;;;;;;;;;;21.10;40.80;;;;;;5139446;27;20400;-53
2022/04/27 07:35:07;;;;;;;;;;;21.30;40.60;;;;;;5141317;27;20049;-56
2022/04/27 07:37:35;;;;;;;;;;;21.10;40.70;;;;;;5129730;27;20018;-52
2022/04/27 07:40:01;;;;;;;;;;;21.20;40.30;;;;;;5142876;27;19930;-57
2022/04/27 07:42:27;;;;;;;;;;;21.00;40.70;;;;;;5142823;27;20219;-52
2022/04/27 07:44:53;;;;;;;;;;;21.30;40.10;;;;;;5148408;27;20374;-52
2022/04/27 07:47:18;;;;;;;;;;;21.10;40.50;;;;;;5142838;27;19927;-55
2022/04/27 07:49:46;;;;;;;;;;;21.20;40.40;;;;;;5147270;27;19927;-54
2022/04/27 07:52:11;;;;;;;;;;;21.00;40.90;;;;;;5139297;27;19923;-55
2022/04/27 07:54:40;;;;;;;;;;;21.30;40.40;;;;;;5142137;27;19931;-56
2022/04/27 07:57:06;;;;;;;;;;;21.10;40.80;;;;;;5147748;27;19923;-59
2022/04/27 07:59:32;;;;;;;;;;;21.20;40.60;;;;;;5142634;27;20063;-56
2022/04/27 08:01:58;;;;;;;;;;;21.10;40.50;;;;;;5142654;27;19927;-56
2022/04/27 08:04:24;;;;;;;;;;;21.20;40.50;;;;;;5148081;27;20297;-47
2022/04/27 08:06:50;;;;;;;;;;;21.10;40.60;;;;;;5142568;27;20022;-58
2022/04/27 08:09:16;;;;;;;;;;;21.30;40.10;;;;;;5143363;27;20507;-57
2022/04/27 08:11:42;;;;;;;;;;;21.00;40.40;;;;;;5142409;27;20374;-56
2022/04/27 08:14:08;;;;;;;;;;;21.30;40.00;;;;;;5141880;27;19934;-58
2022/04/27 08:16:34;;;;;;;;;;;21.00;40.50;;;;;;5147250;27;19927;-58
2022/04/27 08:18:59;;;;;;;;;;;21.30;39.90;;;;;;5142342;27;20014;-56
2022/04/27 08:21:27;;;;;;;;;;;21.00;40.50;;;;;;5142426;27;19927;-54
2022/04/27 08:23:52;;;;;;;;;;;21.30;40.10;;;;;;5147617;27;19971;-58
2022/04/27 08:26:18;;;;;;;;;;;21.00;40.50;;;;;;5141716;27;19923;-54
2022/04/27 08:28:45;;;;;;;;;;;21.20;40.20;;;;;;5139572;27;19923;-56
2022/04/27 08:31:12;;;;;;;;;;;21.10;40.30;;;;;;5146163;27;19931;-59
2022/04/27 08:33:37;;;;;;;;;;;21.30;39.70;;;;;;5141870;27;19929;-57
2022/04/27 08:36:03;;;;;;;;;;;21.10;40.00;;;;;;5147650;27;19923;-53
2022/04/27 08:38:29;;;;;;;;;;;21.20;39.70;;;;;;5142112;27;19934;-51
2022/04/27 08:40:55;;;;;;;;;;;21.00;39.80;;;;;;5141951;27;20018;-52
2022/04/27 08:43:21;;;;;;;;;;;21.30;39.50;;;;;;5147690;27;20484;-50
2022/04/27 08:45:47;;;;;;;;;;;21.00;39.70;;;;;;5120499;27;19927;-51
2022/04/27 08:48:14;;;;;;;;;;;21.30;39.40;;;;;;5139495;27;20019;-56
2022/04/27 08:50:39;;;;;;;;;;;21.30;39.50;;;;;;5146912;27;19931;-49
2022/04/27 08:53:05;;;;;;;;;;;21.30;39.70;;;;;;5141805;27;19922;-57
2022/04/27 08:55:31;;;;;;;;;;;21.10;39.50;;;;;;5147249;27;19927;-58
2022/04/27 08:58:10;;;;;;;;;;;21.20;39.70;;;;;;5141939;27;19934;-56
2022/04/27 09:00:35;;;;;;;;;;;21.30;39.40;;;;;;5141959;27;20009;-53
2022/04/27 09:03:21;;;;;;;;;;;21.30;39.60;;;;;;5146424;27;19934;-57
2022/04/27 09:05:48;;;;;;;;;;;21.20;39.80;;;;;;5138460;27;19941;-59
2022/04/27 09:08:14;;;;;;;;;;;21.30;39.90;;;;;;5140901;27;19942;-58
2022/04/27 09:10:39;;;;;;;;;;;21.20;39.60;;;;;;5128292;27;19948;-54
2022/04/27 09:13:05;;;;;;;;;;;21.20;39.50;;;;;;5122887;27;19927;-52
2022/04/27 09:15:31;;;;;;;;;;;21.00;39.60;;;;;;5141474;27;19970;-47
2022/04/27 09:20:48;;;;;;;;;;;21.10;39.50;;;;;;5141542;27;20355;-59
2022/04/27 09:23:24;;;;;;;;;;;21.20;39.60;;;;;;5137226;27;20143;-56
2022/04/27 09:25:51;;;;;;;;;;;21.10;39.80;;;;;;5145717;27;19967;-57
2022/04/27 09:28:17;;;;;;;;;;;21.30;39.30;;;;;;5122951;27;19938;-52
2022/04/27 09:30:44;;;;;;;;;;;21.00;39.80;;;;;;5145160;27;19923;-58
2022/04/27 09:33:09;;;;;;;;;;;21.30;39.40;;;;;;5150341;27;19930;-47
2022/04/27 09:35:36;;;;;;;;;;;21.10;39.50;;;;;;5144947;27;19931;-58
2022/04/27 09:38:12;;;;;;;;;;;21.20;39.50;;;;;;5150542;27;20014;-48
2022/04/27 09:40:47;;;;;;;;;;;21.20;39.60;;;;;;5142289;27;20366;-55
2022/04/27 09:43:13;;;;;;;;;;;21.20;39.40;;;;;;5142349;27;19969;-48
2022/04/27 09:45:39;;;;;;;;;;;21.20;39.10;;;;;;5149900;27;20420;-57
2022/04/27 09:48:05;;;;;;;;;;;21.30;39.00;;;;;;5144970;27;19923;-54
2022/04/27 09:50:55;;;;;;;;;;;21.20;39.10;;;;;;5144951;27;19946;-55
2022/04/27 09:53:20;;;;;;;;;;;21.20;39.20;;;;;;5150203;27;19930;-48
2022/04/27 09:55:50;;;;;;;;;;;21.10;39.30;;;;;;5144593;27;20454;-58
2022/04/27 09:58:16;;;;;;;;;;;21.30;38.80;;;;;;5125359;27;19967;-51
2022/04/27 10:00:42;;;;;;;;;;;21.10;38.90;;;;;;5145782;27;20370;-54
2022/04/27 10:03:09;;;;;;;;;;;21.30;38.60;;;;;;5143873;27;20438;-56
2022/04/27 10:05:35;;;;;;;;;;;21.30;38.40;;;;;;5125737;27;19923;-56
2022/04/27 10:08:01;;;;;;;;;;;21.20;38.10;;;;;;5149792;27;20386;-53
2022/04/27 10:10:27;;;;;;;;;;;21.10;38.50;;;;;;5144466;27;20386;-57
2022/04/27 10:12:53;;;;;;;;;;;21.30;38.20;;;;;;5131009;27;19923;-49
2022/04/27 10:15:19;;;;;;;;;;;21.10;38.40;;;;;;5144226;27;19923;-58
2022/04/27 10:17:45;;;;;;;;;;;21.30;38.00;;;;;;5141469;27;20370;-57
2022/04/27 10:20:26;;;;;;;;;;;21.20;38.30;;;;;;5147686;27;19928;-55
2022/04/27 10:22:51;;;;;;;;;;;21.10;38.20;;;;;;5143840;27;20048;-58
2022/04/27 10:25:17;;;;;;;;;;;21.30;38.00;;;;;;5144224;27;20317;-47
2022/04/27 10:27:44;;;;;;;;;;;21.00;38.30;;;;;;5129331;27;19981;-58
2022/04/27 10:30:13;;;;;;;;;;;21.30;37.80;;;;;;5144043;27;20104;-58
2022/04/27 10:32:43;;;;;;;;;;;21.30;37.40;;;;;;5144398;27;20124;-54
2022/04/27 10:35:11;;;;;;;;;;;21.10;37.50;;;;;;5148259;27;20354;-57
2022/04/27 10:37:47;;;;;;;;;;;21.20;37.50;;;;;;5140780;27;19930;-52
2022/04/27 10:40:36;;;;;;;;;;;21.20;37.50;;;;;;5147347;27;20353;-55
2022/04/27 10:43:03;;;;;;;;;;;21.10;37.70;;;;;;5135561;27;20055;-47
2022/04/27 10:45:29;;;;;;;;;;;21.10;37.60;;;;;;5123514;27;19924;-52
2022/04/27 10:47:54;;;;;;;;;;;21.20;37.40;;;;;;5149387;27;20298;-55
2022/04/27 10:50:23;;;;;;;;;;;21.10;37.60;;;;;;5144135;27;20028;-56
2022/04/27 10:52:55;;;;;;;;;;;21.20;37.30;;;;;;5143008;27;21403;-54
2022/04/27 10:55:32;;;;;;;;;;;21.20;37.30;;;;;;5144627;27;20426;-56
2022/04/27 10:58:17;;;;;;;;;;;21.20;37.60;;;;;;5142883;27;20446;-57
2022/04/27 11:00:59;;;;;;;;;;;21.20;37.50;;;;;;5143329;27;20302;-56
2022/04/27 11:03:25;;;;;;;;;;;21.20;37.30;;;;;;5148755;27;20369;-57
2022/04/27 11:05:51;;;;;;;;;;;21.20;37.10;;;;;;5144254;27;19923;-53
2022/04/27 11:08:20;;;;;;;;;;;21.30;37.10;;;;;;5143356;27;19923;-57
2022/04/27 11:10:46;;;;;;;;;;;21.20;37.30;;;;;;5130636;27;19926;-48
2022/04/27 11:13:12;;;;;;;;;;;21.10;37.40;;;;;;5120702;27;20009;-52
2022/04/27 11:15:38;;;;;;;;;;;21.20;37.20;;;;;;5141643;27;20206;-58
2022/04/27 11:18:04;;;;;;;;;;;21.30;37.10;;;;;;5148517;27;19923;-56
2022/04/27 11:20:30;;;;;;;;;;;21.10;37.50;;;;;;5143213;27;19923;-58
2022/04/27 11:22:55;;;;;;;;;;;21.30;37.50;;;;;;5144620;27;19923;-51
2022/04/27 11:25:22;;;;;;;;;;;21.10;37.60;;;;;;5147741;27;19966;-56
2022/04/27 11:27:47;;;;;;;;;;;21.20;37.40;;;;;;5143239;27;19923;-58
2022/04/27 11:30:14;;;;;;;;;;;21.20;37.40;;;;;;5147338;27;20373;-57
2022/04/27 11:32:43;;;;;;;;;;;21.20;37.80;;;;;;5121010;27;19959;-57
2022/04/27 11:35:09;;;;;;;;;;;21.30;37.60;;;;;;5142288;27;19998;-54
2022/04/27 11:37:37;;;;;;;;;;;21.20;37.60;;;;;;5129850;27;19940;-59
2022/04/27 11:40:18;;;;;;;;;;;21.30;37.60;;;;;;5143136;27;19947;-57
2022/04/27 11:42:47;;;;;;;;;;;21.10;37.70;;;;;;5142961;27;19931;-58
2022/04/27 11:45:23;;;;;;;;;;;21.20;37.60;;;;;;5148343;27;19923;-52
2022/04/27 11:48:10;;;;;;;;;;;21.20;37.90;;;;;;5142840;27;19946;-58
2022/04/27 11:50:37;;;;;;;;;;;21.30;37.90;;;;;;5137646;27;20173;-55
2022/04/27 11:53:06;;;;;;;;;;;21.20;37.90;;;;;;5128429;27;19930;-56
2022/04/27 11:55:32;;;;;;;;;;;21.30;37.80;;;;;;5142719;27;19930;-57
2022/04/27 11:57:57;;;;;;;;;;;21.20;37.50;;;;;;5142731;27;19923;-59
2022/04/27 12:00:24;;;;;;;;;;;21.30;37.00;;;;;;5148188;27;19926;-51
2022/04/27 12:02:49;;;;;;;;;;;21.20;37.10;;;;;;5142642;27;19933;-58
2022/04/27 12:05:15;;;;;;;;;;;21.30;37.10;;;;;;5147988;27;20432;-54
2022/04/27 12:07:41;;;;;;;;;;;21.20;37.30;;;;;;5139759;27;19982;-58
2022/04/27 12:10:09;;;;;;;;;;;21.30;37.40;;;;;;5139960;27;19930;-60
2022/04/27 12:12:38;;;;;;;;;;;21.30;37.40;;;;;;5147165;27;19927;-55
2022/04/27 12:15:08;;;;;;;;;;;21.20;37.20;;;;;;5123703;27;19927;-58
2022/04/27 12:17:42;;;;;;;;;;;21.20;37.40;;;;;;5142320;27;20025;-58
2022/04/27 12:20:09;;;;;;;;;;;21.30;37.20;;;;;;5147832;27;20017;-58
2022/04/27 12:22:35;;;;;;;;;;;21.20;37.40;;;;;;5141985;27;20031;-53
2022/04/27 12:25:01;;;;;;;;;;;21.20;37.20;;;;;;5141789;27;20508;-58
2022/04/27 12:27:28;;;;;;;;;;;21.30;37.30;;;;;;5143238;27;19931;-57
2022/04/27 12:30:03;;;;;;;;;;;21.30;37.20;;;;;;5141186;27;19930;-56
2022/04/27 12:32:32;;;;;;;;;;;21.20;37.60;;;;;;5126399;27;19930;-58
2022/04/27 12:37:52;;;;;;;;;;;21.30;38.00;;;;;;5125522;27;19931;-54
2022/04/27 12:40:18;;;;;;;;;;;21.20;37.50;;;;;;5144520;27;19990;-58
2022/04/27 12:42:59;;;;;;;;;;;21.30;37.30;;;;;;5145704;27;19923;-58
2022/04/27 12:45:25;;;;;;;;;;;21.20;37.30;;;;;;5137860;27;20014;-57
2022/04/27 12:47:51;;;;;;;;;;;21.20;37.40;;;;;;5146184;27;19933;-57
2022/04/27 12:50:17;;;;;;;;;;;21.20;37.30;;;;;;5141581;27;19933;-58
2022/04/27 12:52:45;;;;;;;;;;;21.20;37.40;;;;;;5141772;27;19923;-55
2022/04/27 12:55:14;;;;;;;;;;;21.20;37.20;;;;;;5147210;27;19935;-55
2022/04/27 12:57:44;;;;;;;;;;;21.20;37.00;;;;;;5141693;27;19923;-59
2022/04/27 13:00:11;;;;;;;;;;;21.30;37.10;;;;;;5141702;27;19923;-57
2022/04/27 13:02:37;;;;;;;;;;;21.30;37.40;;;;;;5126122;27;19931;-58
2022/04/27 13:05:03;;;;;;;;;;;21.20;37.30;;;;;;5139161;27;20022;-59
2022/04/27 13:07:29;;;;;;;;;;;21.20;37.20;;;;;;5141179;27;19930;-56
2022/04/27 13:12:39;;;;;;;;;;;21.30;36.80;;;;;;5141507;27;20354;-59
2022/04/27 13:15:05;;;;;;;;;;;21.30;36.90;;;;;;5145395;27;19923;-56
2022/04/27 13:17:31;;;;;;;;;;;21.30;37.20;;;;;;5143860;27;19923;-57
2022/04/27 13:19:57;;;;;;;;;;;21.20;37.30;;;;;;5141284;27;20018;-56
2022/04/27 13:22:23;;;;;;;;;;;21.10;37.40;;;;;;5142166;27;20528;-56
2022/04/27 13:24:49;;;;;;;;;;;21.30;37.30;;;;;;5140333;27;19927;-58
2022/04/27 13:27:15;;;;;;;;;;;21.30;37.70;;;;;;5141288;27;20302;-57
2022/04/27 13:29:41;;;;;;;;;;;21.30;37.70;;;;;;5146861;27;19923;-54
2022/04/27 13:32:07;;;;;;;;;;;21.20;38.10;;;;;;5141254;27;19931;-59
2022/04/27 13:34:33;;;;;;;;;;;21.30;37.90;;;;;;5142175;27;19923;-57
2022/04/27 13:36:58;;;;;;;;;;;21.20;37.90;;;;;;5146053;27;19923;-55
2022/04/27 13:39:24;;;;;;;;;;;21.20;37.90;;;;;;5138724;27;19931;-56
2022/04/27 13:41:50;;;;;;;;;;;21.30;37.90;;;;;;5143849;27;20288;-58
2022/04/27 13:44:16;;;;;;;;;;;21.20;38.00;;;;;;5122025;27;19934;-57
2022/04/27 13:46:41;;;;;;;;;;;21.30;38.00;;;;;;5140591;27;19973;-58
2022/04/27 13:49:07;;;;;;;;;;;21.30;38.30;;;;;;5146487;27;20393;-58
2022/04/27 13:51:34;;;;;;;;;;;21.30;38.10;;;;;;5141150;27;19945;-58
2022/04/27 13:54:01;;;;;;;;;;;21.20;37.70;;;;;;5141151;27;19927;-52
2022/04/27 13:56:27;;;;;;;;;;;21.20;37.50;;;;;;5146636;27;19954;-58
2022/04/27 13:58:53;;;;;;;;;;;21.30;37.10;;;;;;5136831;27;19923;-59
2022/04/27 14:01:18;;;;;;;;;;;21.30;37.40;;;;;;5145077;27;20019;-57
2022/04/27 14:03:45;;;;;;;;;;;21.30;37.70;;;;;;5140361;27;19930;-58
2022/04/27 14:06:11;;;;;;;;;;;21.30;37.90;;;;;;5140715;27;19927;-59
2022/04/27 14:08:36;;;;;;;;;;;21.30;38.20;;;;;;5146206;27;19981;-56
2022/04/27 14:11:02;;;;;;;;;;;21.30;37.90;;;;;;5140765;27;19979;-59
2022/04/27 14:13:28;;;;;;;;;;;21.30;37.90;;;;;;5140705;27;19931;-58
2022/04/27 14:18:38;;;;;;;;;;;21.30;38.00;;;;;;5141970;27;19933;-57
2022/04/27 14:21:06;;;;;;;;;;;21.30;37.90;;;;;;5143825;27;19923;-58
2022/04/27 14:23:31;;;;;;;;;;;21.30;38.20;;;;;;5149578;27;20235;-58
2022/04/27 14:25:57;;;;;;;;;;;21.30;38.30;;;;;;5144479;27;19923;-58
2022/04/27 14:28:23;;;;;;;;;;;21.30;38.00;;;;;;5149701;27;19927;-57
2022/04/27 14:30:49;;;;;;;;;;;21.30;38.10;;;;;;5144067;27;19927;-58
2022/04/27 14:33:16;;;;;;;;;;;21.30;38.30;;;;;;5143785;27;19931;-57
2022/04/27 14:35:42;;;;;;;;;;;21.30;38.00;;;;;;5145011;27;19951;-57